createdAt,value
2024-03-01T00:00:11.152Z,98372.00
2024-03-01T00:02:39.707Z,98373.06
2024-03-01T00:05:08.934Z,98383.13
2024-03-01T00:07:37.572Z,98381.59
2024-03-01T00:10:09.083Z,98379.16
2024-03-01T00:12:39.653Z,98375.91
2024-03-01T00:15:09.537Z,98382.84
2024-03-01T00:17:38.101Z,98387.19
2024-03-01T00:20:08.697Z,98383.25
2024-03-01T00:22:37.941Z,98382.56
2024-03-01T00:25:09.753Z,98389.47
2024-03-01T00:27:40.990Z,98391.38
2024-03-01T00:30:11.408Z,98399.13
2024-03-01T00:32:40.385Z,98396.69
2024-03-01T00:35:10.261Z,98396.06
2024-03-01T00:37:38.895Z,98392.72
2024-03-01T00:40:10.267Z,98390.19
2024-03-01T00:42:41.123Z,98399.56
2024-03-01T00:45:10.550Z,98397.19
2024-03-01T00:47:46.722Z,98397.41
2024-03-01T00:50:15.757Z,98401.81
2024-03-01T00:52:45.114Z,98408.47
2024-03-01T00:55:13.734Z,98410.13
2024-03-01T00:57:44.754Z,98405.88
2024-03-01T01:00:14.694Z,98382.16
2024-03-01T01:02:43.513Z,98383.91
2024-03-01T01:05:13.326Z,98377.09
2024-03-01T01:07:42.053Z,98372.00
2024-03-01T01:10:11.230Z,98365.28
2024-03-01T01:12:40.464Z,98360.19
2024-03-01T01:15:14.270Z,98357.78
2024-03-01T01:17:43.550Z,98355.44
2024-03-01T01:20:13.797Z,98343.06
2024-03-01T01:22:42.505Z,98345.59
2024-03-01T01:25:11.283Z,98338.16
2024-03-01T01:27:40.187Z,98344.19
2024-03-01T01:30:12.265Z,98350.19
2024-03-01T01:32:40.942Z,98345.22
2024-03-01T01:35:10.268Z,98352.84
2024-03-01T01:37:39.007Z,98357.06
2024-03-01T01:40:10.394Z,98357.06
2024-03-01T01:42:39.541Z,98341.84
2024-03-01T01:45:11.335Z,98341.03
2024-03-01T01:47:40.065Z,98344.59
2024-03-01T01:50:10.507Z,98335.34
2024-03-01T01:52:39.565Z,98345.50
2024-03-01T01:55:09.565Z,98338.59
2024-03-01T01:57:38.785Z,98342.97
2024-03-01T02:00:12.098Z,98339.72
2024-03-01T02:02:46.984Z,98336.56
2024-03-01T02:05:15.692Z,98337.59
2024-03-01T02:07:44.337Z,98341.97
2024-03-01T02:10:18.366Z,98336.16
2024-03-01T02:12:58.164Z,98338.91
2024-03-01T02:15:29.063Z,98343.28
2024-03-01T02:17:59.057Z,98336.59
2024-03-01T02:20:32.387Z,98344.91
2024-03-01T02:23:03.968Z,98338.19
2024-03-01T02:25:34.032Z,98338.41
2024-03-01T02:28:05.049Z,98330.91
2024-03-01T02:30:33.745Z,98340.25
2024-03-01T02:33:02.703Z,98338.72
2024-03-01T02:35:31.377Z,98332.13
2024-03-01T02:38:00.009Z,98344.81
2024-03-01T02:40:28.604Z,98339.84
2024-03-01T02:42:59.213Z,98339.94
2024-03-01T02:45:27.900Z,98338.31
2024-03-01T02:47:56.772Z,98327.25
2024-03-01T02:50:25.686Z,98328.84
2024-03-01T02:52:54.378Z,98329.69
2024-03-01T02:55:23.153Z,98328.16
2024-03-01T02:57:54.041Z,98324.00
2024-03-01T03:00:25.133Z,98325.72
2024-03-01T03:02:54.106Z,98318.28
2024-03-01T03:05:22.975Z,98319.81
2024-03-01T03:07:51.742Z,98321.44
2024-03-01T03:10:21.190Z,98323.09
2024-03-01T03:12:50.588Z,98323.09
2024-03-01T03:15:19.369Z,98323.09
2024-03-01T03:17:50.323Z,98324.78
2024-03-01T03:20:19.769Z,98321.44
2024-03-01T03:22:48.759Z,98307.97
2024-03-01T03:25:17.600Z,98315.66
2024-03-01T03:27:46.243Z,98312.41
2024-03-01T03:30:15.216Z,98318.50
2024-03-01T03:32:43.897Z,98312.75
2024-03-01T03:35:14.118Z,98319.72
2024-03-01T03:37:42.890Z,98327.44
2024-03-01T03:40:16.512Z,98330.09
2024-03-01T03:42:45.635Z,98325.03
2024-03-01T03:45:14.278Z,98331.69
2024-03-01T03:47:43.157Z,98329.16
2024-03-01T03:50:13.151Z,98332.72
2024-03-01T03:52:43.005Z,98335.16
2024-03-01T03:55:12.073Z,98335.16
2024-03-01T03:57:40.797Z,98336.06
2024-03-01T04:00:11.691Z,98333.66
2024-03-01T04:02:40.795Z,98335.34
2024-03-01T04:05:09.826Z,98342.06
2024-03-01T04:07:40.245Z,98341.44
2024-03-01T04:10:10.551Z,98341.38
2024-03-01T04:12:39.389Z,98336.38
2024-03-01T04:15:09.968Z,98336.47
2024-03-01T04:17:38.794Z,98348.34
2024-03-01T04:20:09.619Z,98349.38
2024-03-01T04:22:39.979Z,98351.22
2024-03-01T04:25:10.238Z,98356.34
2024-03-01T04:27:39.384Z,98352.22
2024-03-01T04:30:10.629Z,98348.16
2024-03-01T04:32:39.545Z,98359.09
2024-03-01T04:35:08.630Z,98361.75
2024-03-01T04:37:37.329Z,98360.09
2024-03-01T04:40:08.512Z,98360.09
2024-03-01T04:42:38.968Z,98362.66
2024-03-01T04:45:09.682Z,98364.28
2024-03-01T04:47:38.673Z,98361.75
2024-03-01T04:50:08.735Z,98362.53
2024-03-01T04:52:37.349Z,98364.06
2024-03-01T04:55:10.832Z,98379.28
2024-03-01T04:57:39.625Z,98390.19
2024-03-01T05:00:13.527Z,98386.72
2024-03-01T05:02:43.172Z,98382.34
2024-03-01T05:05:12.198Z,98385.69
2024-03-01T05:07:41.065Z,98384.88
2024-03-01T05:10:12.327Z,98378.06
2024-03-01T05:12:44.045Z,98378.06
2024-03-01T05:15:13.723Z,98372.94
2024-03-01T05:17:46.275Z,98375.53
2024-03-01T05:20:15.814Z,98364.81
2024-03-01T05:22:45.911Z,98368.25
2024-03-01T05:25:19.280Z,98373.31
2024-03-01T05:27:49.917Z,98377.59
2024-03-01T05:30:32.703Z,98375.16
2024-03-01T05:33:09.941Z,98382.75
2024-03-01T05:35:39.607Z,98380.94
2024-03-01T05:38:08.392Z,98390.19
2024-03-01T05:40:46.530Z,98379.19
2024-03-01T05:43:23.573Z,98398.00
2024-03-01T05:45:54.050Z,98404.66
2024-03-01T05:48:24.635Z,98399.69
2024-03-01T05:50:53.862Z,98398.91
2024-03-01T05:53:22.462Z,98400.59
2024-03-01T05:55:52.502Z,98402.34
2024-03-01T05:58:26.437Z,98406.50
2024-03-01T06:00:56.349Z,98403.13
2024-03-01T06:03:25.245Z,98413.28
2024-03-01T06:05:54.109Z,98401.44
2024-03-01T06:08:22.803Z,98399.59
2024-03-01T06:10:53.467Z,98398.69
2024-03-01T06:13:22.287Z,98402.88
2024-03-01T06:15:52.639Z,98406.19
2024-03-01T06:18:21.445Z,98417.19
2024-03-01T06:20:50.160Z,98415.34
2024-03-01T06:23:19.106Z,98418.69
2024-03-01T06:25:48.077Z,98413.53
2024-03-01T06:28:18.427Z,98422.75
2024-03-01T06:30:47.153Z,98423.50
2024-03-01T06:33:15.800Z,98420.03
2024-03-01T06:35:44.465Z,98422.47
2024-03-01T06:38:13.148Z,98421.66
2024-03-01T06:40:41.888Z,98425.81
2024-03-01T06:43:10.564Z,98433.44
2024-03-01T06:45:40.794Z,98428.34
2024-03-01T06:48:11.002Z,98422.47
2024-03-01T06:50:40.501Z,98426.72
2024-03-01T06:53:09.238Z,98430.78
2024-03-01T06:55:38.055Z,98440.03
2024-03-01T06:58:06.922Z,98445.00
2024-03-01T07:00:35.923Z,98438.13
2024-03-01T07:03:06.430Z,98435.50
2024-03-01T07:05:35.035Z,98443.69
2024-03-01T07:08:04.586Z,98436.09
2024-03-01T07:10:33.737Z,98420.84
2024-03-01T07:13:02.516Z,98436.00
2024-03-01T07:15:31.202Z,98430.00
2024-03-01T07:18:00.801Z,98445.06
2024-03-01T07:20:31.129Z,98435.50
2024-03-01T07:22:59.796Z,98441.19
2024-03-01T07:25:28.535Z,98439.34
2024-03-01T07:27:57.288Z,98433.28
2024-03-01T07:30:26.014Z,98443.25
2024-03-01T07:32:54.866Z,98441.41
2024-03-01T07:35:23.665Z,98439.59
2024-03-01T07:37:53.722Z,98436.94
2024-03-01T07:40:22.386Z,98437.66
2024-03-01T07:42:51.692Z,98437.53
2024-03-01T07:45:22.118Z,98436.63
2024-03-01T07:47:50.779Z,98424.56
2024-03-01T07:50:21.250Z,98432.88
2024-03-01T07:52:50.069Z,98428.53
2024-03-01T07:55:20.157Z,98428.41
2024-03-01T07:57:49.777Z,98437.56
2024-03-01T08:00:19.484Z,98436.56
2024-03-01T08:02:48.886Z,98427.09
2024-03-01T08:05:17.731Z,98430.34
2024-03-01T08:07:46.535Z,98423.31
2024-03-01T08:10:17.474Z,98415.53
2024-03-01T08:12:47.937Z,98413.66
2024-03-01T08:15:26.396Z,98415.91
2024-03-01T08:17:55.125Z,98417.34
2024-03-01T08:20:48.299Z,98424.63
2024-03-01T08:23:17.733Z,98420.19
2024-03-01T08:25:46.555Z,98425.84
2024-03-01T08:28:23.489Z,98423.91
2024-03-01T08:30:52.277Z,98416.06
2024-03-01T08:33:22.876Z,98414.94
2024-03-01T08:35:51.864Z,98416.38
2024-03-01T08:39:08.372Z,98408.44
2024-03-01T08:41:37.097Z,98413.19
2024-03-01T08:44:34.634Z,98405.97
2024-03-01T08:47:03.250Z,98407.41
2024-03-01T08:50:22.084Z,98410.34
2024-03-01T08:52:50.965Z,98410.84
2024-03-01T08:55:48.241Z,98417.09
2024-03-01T08:58:24.858Z,98411.59
2024-03-01T09:00:57.961Z,98410.47
2024-03-01T09:03:31.120Z,98415.13
2024-03-01T09:06:01.275Z,98415.59
2024-03-01T09:08:33.739Z,98416.09
2024-03-01T09:11:03.455Z,98411.50
2024-03-01T09:13:34.482Z,98417.88
2024-03-01T09:16:04.772Z,98405.53
2024-03-01T09:18:49.270Z,98406.81
2024-03-01T09:21:47.598Z,98413.19
2024-03-01T09:24:19.196Z,98416.22
2024-03-01T09:26:50.257Z,98418.22
2024-03-01T09:29:37.900Z,98417.66
2024-03-01T09:32:09.808Z,98411.22
2024-03-01T09:34:40.998Z,98414.13
2024-03-01T09:37:15.001Z,98406.81
2024-03-01T09:39:44.097Z,98408.81
2024-03-01T09:42:38.438Z,98401.41
2024-03-01T09:45:49.149Z,98403.38
2024-03-01T09:48:41.104Z,98416.41
2024-03-01T09:51:29.541Z,98414.09
2024-03-01T09:54:25.120Z,98410.25
2024-03-01T09:57:08.295Z,98419.06
2024-03-01T09:59:47.063Z,98429.59
2024-03-01T10:02:28.794Z,98414.78
2024-03-01T10:05:27.389Z,98408.50
2024-03-01T10:08:04.585Z,98409.91
2024-03-01T10:10:57.742Z,98412.91
2024-03-01T10:13:34.959Z,98420.44
2024-03-01T10:19:05.618Z,98416.72
2024-03-01T10:21:47.554Z,98419.16
2024-03-01T10:24:31.150Z,98429.25
2024-03-01T10:27:07.654Z,98434.13
2024-03-01T10:30:06.008Z,98442.59
2024-03-01T10:32:58.936Z,98443.28
2024-03-01T10:35:32.872Z,98454.28
2024-03-01T10:38:22.075Z,98442.25
2024-03-01T10:41:11.469Z,98442.13
2024-03-01T10:44:01.219Z,98438.63
2024-03-01T10:46:39.501Z,98440.13
2024-03-01T10:49:15.393Z,98441.63
2024-03-01T10:51:54.386Z,98451.59
2024-03-01T10:54:24.810Z,98445.56
2024-03-01T10:56:53.805Z,98457.41
2024-03-01T10:59:39.632Z,98459.03
2024-03-01T11:02:17.242Z,98453.09
2024-03-01T11:04:55.126Z,98454.06
2024-03-01T11:07:37.160Z,98463.44
2024-03-01T11:10:16.041Z,98456.69
2024-03-01T11:12:55.105Z,98454.41
2024-03-01T11:15:25.692Z,98453.59
2024-03-01T11:17:55.975Z,98455.44
2024-03-01T11:20:28.740Z,98459.75
2024-03-01T11:23:04.635Z,98453.94
2024-03-01T11:25:47.661Z,98463.47
2024-03-01T11:28:20.170Z,98458.59
2024-03-01T11:30:54.399Z,98460.31
2024-03-01T11:33:24.983Z,98455.47
2024-03-01T11:35:59.619Z,98453.81
2024-03-01T11:38:36.071Z,98449.78
2024-03-01T11:41:23.698Z,98456.75
2024-03-01T11:44:10.225Z,98447.59
2024-03-01T11:47:08.165Z,98453.72
2024-03-01T11:50:15.564Z,98445.41
2024-03-01T11:53:02.444Z,98440.63
2024-03-01T11:55:58.196Z,98450.16
2024-03-01T11:58:35.993Z,98448.50
2024-03-01T12:01:27.202Z,98446.09
2024-03-01T12:04:26.018Z,98439.34
2024-03-01T12:07:26.663Z,98438.66
2024-03-01T12:10:06.457Z,98440.41
2024-03-01T12:12:43.788Z,98441.31
2024-03-01T12:15:20.925Z,98443.88
2024-03-01T12:18:04.397Z,98443.88
2024-03-01T12:20:37.399Z,98443.97
2024-03-01T12:23:23.691Z,98437.97
2024-03-01T12:25:53.710Z,98433.66
2024-03-01T12:28:42.698Z,98439.59
2024-03-01T12:31:29.082Z,98436.22
2024-03-01T12:34:43.644Z,98439.81
2024-03-01T12:37:31.256Z,98437.16
2024-03-01T12:40:18.051Z,98429.59
2024-03-01T12:43:21.638Z,98431.34
2024-03-01T12:46:22.339Z,98441.56
2024-03-01T12:49:06.125Z,98439.81
2024-03-01T12:51:52.007Z,98430.44
2024-03-01T12:54:34.818Z,98432.16
2024-03-01T12:57:17.334Z,98434.63
2024-03-01T12:59:54.777Z,98431.25
2024-03-01T13:03:01.644Z,98425.34
2024-03-01T13:05:41.788Z,98423.59
2024-03-01T13:08:20.229Z,98420.13
2024-03-01T13:10:49.438Z,98420.00
2024-03-01T13:13:30.649Z,98418.94
2024-03-01T13:16:08.489Z,98411.19
2024-03-01T13:18:46.609Z,98406.78
2024-03-01T13:21:26.589Z,98410.81
2024-03-01T13:24:09.686Z,98406.19
2024-03-01T13:26:45.987Z,98407.81
2024-03-01T13:29:17.689Z,98399.00
2024-03-01T13:32:01.568Z,98402.94
2024-03-01T13:34:33.832Z,98398.53
2024-03-01T13:37:12.351Z,98394.94
2024-03-01T13:39:47.612Z,98400.72
2024-03-01T13:42:33.303Z,98387.84
2024-03-01T13:45:14.514Z,98383.44
2024-03-01T13:47:49.762Z,98378.22
2024-03-01T13:50:30.619Z,98376.34
2024-03-01T13:53:00.596Z,98384.81
2024-03-01T13:55:30.097Z,98383.88
2024-03-01T13:58:00.243Z,98378.75
2024-03-01T14:00:29.939Z,98383.78
2024-03-01T14:03:00.477Z,98386.19
2024-03-01T14:05:31.722Z,98385.25
2024-03-01T14:08:02.706Z,98378.31
2024-03-01T14:10:31.781Z,98377.38
2024-03-01T14:13:00.630Z,98381.56
2024-03-01T14:15:29.334Z,98373.78
2024-03-01T14:17:57.941Z,98370.28
2024-03-01T14:20:27.072Z,98376.19
2024-03-01T14:22:57.242Z,98369.22
2024-03-01T14:25:26.578Z,98370.06
2024-03-01T14:27:56.967Z,98370.84
2024-03-01T14:30:27.699Z,98370.06
2024-03-01T14:33:10.445Z,98370.84
2024-03-01T14:35:41.185Z,98365.06
2024-03-01T14:38:16.926Z,98362.53
2024-03-01T14:40:56.731Z,98361.69
2024-03-01T14:43:25.853Z,98357.41
2024-03-01T14:45:57.826Z,98366.00
2024-03-01T14:48:29.994Z,98366.00
2024-03-01T14:51:05.836Z,98365.16
2024-03-01T14:53:46.760Z,98370.41
2024-03-01T14:56:17.529Z,98368.78
2024-03-01T14:58:46.268Z,98354.28
2024-03-01T15:01:15.044Z,98367.84
2024-03-01T15:03:43.833Z,98359.38
2024-03-01T15:06:12.646Z,98361.16
2024-03-01T15:08:42.663Z,98362.75
2024-03-01T15:11:13.668Z,98357.75
2024-03-01T15:13:43.913Z,98356.84
2024-03-01T15:16:21.576Z,98346.75
2024-03-01T15:18:50.561Z,98345.81
2024-03-01T15:21:19.869Z,98346.75
2024-03-01T15:23:51.118Z,98339.91
2024-03-01T15:26:19.981Z,98345.81
2024-03-01T15:28:49.835Z,98345.94
2024-03-01T15:31:18.727Z,98338.28
2024-03-01T15:33:47.370Z,98344.31
2024-03-01T15:36:16.030Z,98335.84
2024-03-01T15:38:45.230Z,98337.47
2024-03-01T15:41:15.816Z,98336.75
2024-03-01T15:46:16.975Z,98342.81
2024-03-01T15:48:45.903Z,98334.47
2024-03-01T15:51:15.860Z,98338.66
2024-03-01T15:53:45.447Z,98339.56
2024-03-01T15:56:15.643Z,98340.41
2024-03-01T15:58:44.518Z,98339.56
2024-03-01T16:01:13.610Z,98334.63
2024-03-01T16:03:43.320Z,98336.88
2024-03-01T16:06:12.172Z,98338.44
2024-03-01T16:08:41.038Z,98342.31
2024-03-01T16:11:10.067Z,98351.22
2024-03-01T16:13:40.185Z,98339.66
2024-03-01T16:16:10.530Z,98340.03
2024-03-01T16:18:41.204Z,98339.31
2024-03-01T16:21:12.608Z,98344.66
2024-03-01T16:23:44.131Z,98335.50
2024-03-01T16:26:18.293Z,98335.75
2024-03-01T16:28:52.633Z,98334.38
2024-03-01T16:31:21.970Z,98338.69
2024-03-01T16:33:51.110Z,98337.97
2024-03-01T16:36:21.455Z,98337.31
2024-03-01T16:38:50.358Z,98337.41
2024-03-01T16:41:40.931Z,98328.38
2024-03-01T16:44:33.915Z,98333.72
2024-03-01T16:47:02.939Z,98332.09
2024-03-01T16:49:40.688Z,98334.75
2024-03-01T16:52:12.892Z,98328.97
2024-03-01T16:54:44.378Z,98326.66
2024-03-01T16:57:20.284Z,98325.97
2024-03-01T16:59:50.529Z,98321.78
2024-03-01T17:02:29.565Z,98327.13
2024-03-01T17:04:59.314Z,98329.94
2024-03-01T17:07:44.608Z,98328.44
2024-03-01T17:10:23.624Z,98326.00
2024-03-01T17:12:56.817Z,98327.06
2024-03-01T17:15:27.305Z,98331.56
2024-03-01T17:17:56.106Z,98342.69
2024-03-01T17:20:26.222Z,98336.06
2024-03-01T17:22:55.475Z,98333.66
2024-03-01T17:25:24.540Z,98329.59
2024-03-01T17:27:53.186Z,98332.25
2024-03-01T17:30:22.000Z,98344.34
2024-03-01T17:32:52.022Z,98336.09
2024-03-01T17:35:22.373Z,98336.22
2024-03-01T17:37:51.940Z,98338.06
2024-03-01T17:40:21.156Z,98338.19
2024-03-01T17:42:51.397Z,98340.84
2024-03-01T17:45:20.887Z,98339.34
2024-03-01T17:47:51.821Z,98343.75
2024-03-01T17:50:20.958Z,98348.13
2024-03-01T17:52:49.990Z,98350.78
2024-03-01T17:55:18.807Z,98332.25
2024-03-01T17:57:47.407Z,98343.50
2024-03-01T18:00:17.696Z,98350.31
2024-03-01T18:02:46.402Z,98354.72
2024-03-01T18:05:16.835Z,98344.78
2024-03-01T18:07:45.483Z,98348.25
2024-03-01T18:10:20.421Z,98352.63
2024-03-01T18:12:50.095Z,98348.47
2024-03-01T18:15:18.912Z,98346.03
2024-03-01T18:17:47.530Z,98348.69
2024-03-01T18:20:17.591Z,98341.16
2024-03-01T18:22:46.221Z,98351.47
2024-03-01T18:25:15.255Z,98334.56
2024-03-01T18:27:42.918Z,98345.66
2024-03-01T18:30:13.286Z,98335.72
2024-03-01T18:32:42.178Z,98339.19
2024-03-01T18:35:11.102Z,98342.69
2024-03-01T18:37:41.135Z,98334.31
2024-03-01T18:40:11.154Z,98330.84
2024-03-01T18:42:39.929Z,98321.69
2024-03-01T18:45:10.734Z,98326.00
2024-03-01T18:47:39.899Z,98326.81
2024-03-01T18:50:10.072Z,98329.47
2024-03-01T18:52:40.308Z,98329.47
2024-03-01T18:55:09.411Z,98326.22
2024-03-01T18:57:39.328Z,98333.84
2024-03-01T19:00:10.401Z,98326.44
2024-03-01T19:02:40.501Z,98316.25
2024-03-01T19:05:09.889Z,98324.81
2024-03-01T19:07:38.533Z,98329.91
2024-03-01T19:10:10.964Z,98321.59
2024-03-01T19:12:40.122Z,98317.66
2024-03-01T19:15:10.463Z,98315.09
2024-03-01T19:17:39.624Z,98318.56
2024-03-01T19:20:11.735Z,98315.31
2024-03-01T19:22:40.739Z,98328.16
2024-03-01T19:25:11.585Z,98320.63
2024-03-01T19:27:40.219Z,98313.91
2024-03-01T19:30:10.061Z,98314.84
2024-03-01T19:32:38.771Z,98308.13
2024-03-01T19:35:08.285Z,98308.25
2024-03-01T19:37:37.102Z,98302.44
2024-03-01T19:40:07.970Z,98306.75
2024-03-01T19:42:38.113Z,98296.78
2024-03-01T19:45:08.638Z,98300.25
2024-03-01T19:47:37.216Z,98296.06
2024-03-01T19:50:06.734Z,98299.53
2024-03-01T19:52:35.645Z,98303.03
2024-03-01T19:55:04.505Z,98302.31
2024-03-01T19:57:33.127Z,98300.69
2024-03-01T20:00:03.155Z,98304.97
2024-03-01T20:02:33.772Z,98299.19
2024-03-01T20:05:02.431Z,98300.00
2024-03-01T20:07:31.174Z,98295.84
2024-03-01T20:09:59.761Z,98294.22
2024-03-01T20:12:28.438Z,98297.69
2024-03-01T20:14:58.211Z,98297.69
2024-03-01T20:17:29.919Z,98296.88
2024-03-01T20:19:58.534Z,98292.81
2024-03-01T20:22:27.239Z,98296.31
2024-03-01T20:24:55.844Z,98289.69
2024-03-01T20:27:24.527Z,98285.66
2024-03-01T20:29:53.218Z,98274.63
2024-03-01T20:32:22.016Z,98284.94
2024-03-01T20:34:52.774Z,98279.84
2024-03-01T20:37:22.132Z,98273.03
2024-03-01T20:39:50.864Z,98279.84
2024-03-01T20:42:19.753Z,98277.28
2024-03-01T20:44:48.453Z,98273.94
2024-03-01T20:47:17.238Z,98279.44
2024-03-01T20:49:46.131Z,98266.13
2024-03-01T20:52:17.075Z,98253.16
2024-03-01T20:54:45.812Z,98266.19
2024-03-01T20:57:14.733Z,98261.34
2024-03-01T20:59:43.366Z,98259.72
2024-03-01T21:02:12.164Z,98258.31
2024-03-01T21:04:41.102Z,98262.63
2024-03-01T21:07:09.852Z,98255.91
2024-03-01T21:09:39.920Z,98251.84
2024-03-01T21:12:09.361Z,98249.28
2024-03-01T21:14:38.758Z,98251.97
2024-03-01T21:17:07.788Z,98257.16
2024-03-01T21:19:37.054Z,98250.44
2024-03-01T21:24:37.488Z,98247.22
2024-03-01T21:27:07.872Z,98239.69
2024-03-01T21:29:36.579Z,98242.34
2024-03-01T21:32:10.257Z,98237.25
2024-03-01T21:34:48.036Z,98239.78
2024-03-01T21:37:16.882Z,98239.09
2024-03-01T21:39:45.660Z,98239.09
2024-03-01T21:42:16.014Z,98236.78
2024-03-01T21:44:45.768Z,98228.56
2024-03-01T21:47:14.550Z,98226.13
2024-03-01T21:49:43.276Z,98231.22
2024-03-01T21:52:11.948Z,98230.50
2024-03-01T21:54:41.145Z,98230.50
2024-03-01T21:57:10.266Z,98230.50
2024-03-01T21:59:40.377Z,98225.44
2024-03-01T22:02:11.119Z,98223.81
2024-03-01T22:04:39.741Z,98222.09
2024-03-01T22:07:11.677Z,98223.72
2024-03-01T22:09:41.289Z,98226.13
2024-03-01T22:12:10.380Z,98222.69
2024-03-01T22:14:40.446Z,98218.28
2024-03-01T22:17:09.425Z,98225.91
2024-03-01T22:19:38.093Z,98223.25
2024-03-01T22:22:06.714Z,98217.91
2024-03-01T22:24:35.961Z,98219.53
2024-03-01T22:27:04.770Z,98218.63
2024-03-01T22:29:33.541Z,98220.25
2024-03-01T22:32:03.913Z,98211.78
2024-03-01T22:34:32.517Z,98205.78
2024-03-01T22:37:01.705Z,98204.88
2024-03-01T22:39:30.433Z,98204.63
2024-03-01T22:41:59.099Z,98210.63
2024-03-01T22:44:27.709Z,98197.00
2024-03-01T22:46:56.871Z,98206.28
2024-03-01T22:49:26.872Z,98207.06
2024-03-01T22:51:55.516Z,98209.50
2024-03-01T22:54:27.267Z,98205.34
2024-03-01T22:56:57.778Z,98213.91
2024-03-01T23:00:21.885Z,98212.63
2024-03-01T23:02:54.762Z,98209.38
2024-03-01T23:05:49.470Z,98208.81
2024-03-01T23:08:43.654Z,98213.31
2024-03-01T23:11:46.005Z,98211.91
2024-03-01T23:14:46.035Z,98207.84
2024-03-01T23:17:14.969Z,98207.16
2024-03-01T23:19:43.733Z,98203.00
2024-03-01T23:22:16.030Z,98205.66
2024-03-01T23:24:44.993Z,98203.19
2024-03-01T23:27:13.802Z,98213.38
2024-03-01T23:29:42.460Z,98209.22
2024-03-01T23:32:11.307Z,98215.22
2024-03-01T23:34:39.979Z,98207.59
2024-03-01T23:37:08.965Z,98210.16
2024-03-01T23:39:39.360Z,98223.78
2024-03-01T23:42:09.132Z,98214.53
2024-03-01T23:44:37.825Z,98215.47
2024-03-01T23:47:07.067Z,98214.53
2024-03-01T23:49:36.462Z,98212.94
2024-03-01T23:52:05.381Z,98209.56
2024-03-01T23:54:35.481Z,98207.00
2024-03-01T23:57:05.981Z,98208.75
2024-03-01T23:59:34.647Z,98210.38
